sensor_id;sensor_type;location;lat;lon;timestamp;temperature;humidity
8736;DHT22;4404;49.308;12.178;2023-07-29T05:32:51;17.00;99.90
8736;DHT22;4404;49.308;12.178;2023-07-29T05:34:53;17.10;99.90
8736;DHT22;4404;49.308;12.178;2023-07-29T05:36:55;17.20;99.90
8736;DHT22;4404;49.308;12.178;2023-07-29T05:38:58;17.40;99.90
8736;DHT22;4404;49.308;12.178;2023-07-29T05:41:00;17.50;99.90
8736;DHT22;4404;49.308;12.178;2023-07-29T05:43:02;17.60;99.90
8736;DHT22;4404;49.308;12.178;2023-07-29T05:45:06;17.70;99.90
8736;DHT22;4404;49.308;12.178;2023-07-29T05:47:09;17.80;99.90
8736;DHT22;4404;49.308;12.178;2023-07-29T05:49:12;17.80;99.90
8736;DHT22;4404;49.308;12.178;2023-07-29T05:51:14;17.90;99.90
8736;DHT22;4404;49.308;12.178;2023-07-29T05:53:17;17.90;99.90
8736;DHT22;4404;49.308;12.178;2023-07-29T05:55:21;18.00;99.90
8736;DHT22;4404;49.308;12.178;2023-07-29T05:57:23;18.10;99.90
8736;DHT22;4404;49.308;12.178;2023-07-29T05:59:25;18.10;99.90
8736;DHT22;4404;49.308;12.178;2023-07-29T06:01:29;18.20;99.90
8736;DHT22;4404;49.308;12.178;2023-07-29T06:03:34;18.40;99.90
8736;DHT22;4404;49.308;12.178;2023-07-29T06:05:37;18.50;99.90
8736;DHT22;4404;49.308;12.178;2023-07-29T06:07:41;18.50;99.90
8736;DHT22;4404;49.308;12.178;2023-07-29T06:09:44;18.60;99.90
8736;DHT22;4404;49.308;12.178;2023-07-29T06:11:46;18.70;99.90
8736;DHT22;4404;49.308;12.178;2023-07-29T06:13:48;18.70;99.90
8736;DHT22;4404;49.308;12.178;2023-07-29T06:15:50;18.70;99.90
8736;DHT22;4404;49.308;12.178;2023-07-29T06:17:53;18.70;99.90
8736;DHT22;4404;49.308;12.178;2023-07-29T06:19:55;18.80;99.90
8736;DHT22;4404;49.308;12.178;2023-07-29T06:21:59;18.80;99.90
8736;DHT22;4404;49.308;12.178;2023-07-29T06:24:02;19.00;99.90
8736;DHT22;4404;49.308;12.178;2023-07-29T06:26:04;19.00;99.90
8736;DHT22;4404;49.308;12.178;2023-07-29T06:28:08;19.00;99.90
8736;DHT22;4404;49.308;12.178;2023-07-29T06:30:10;19.00;99.90
8736;DHT22;4404;49.308;12.178;2023-07-29T06:32:13;19.00;99.90
8736;DHT22;4404;49.308;12.178;2023-07-29T06:34:15;19.10;99.90
8736;DHT22;4404;49.308;12.178;2023-07-29T06:36:17;19.20;99.90
8736;DHT22;4404;49.308;12.178;2023-07-29T06:38:21;19.20;99.90
8736;DHT22;4404;49.308;12.178;2023-07-29T06:40:23;19.30;99.90
8736;DHT22;4404;49.308;12.178;2023-07-29T06:42:25;19.40;99.90
8736;DHT22;4404;49.308;12.178;2023-07-29T06:44:26;19.40;99.90
8736;DHT22;4404;49.308;12.178;2023-07-29T06:46:29;19.50;99.90
8736;DHT22;4404;49.308;12.178;2023-07-29T06:48:31;19.50;99.90
8736;DHT22;4404;49.308;12.178;2023-07-29T06:50:33;19.60;99.90
8736;DHT22;4404;49.308;12.178;2023-07-29T06:52:35;19.50;99.90
8736;DHT22;4404;49.308;12.178;2023-07-29T06:54:40;19.50;99.90
8736;DHT22;4404;49.308;12.178;2023-07-29T06:56:42;19.50;99.90
8736;DHT22;4404;49.308;12.178;2023-07-29T06:58:44;19.40;99.90
8736;DHT22;4404;49.308;12.178;2023-07-29T07:00:45;19.50;99.90
8736;DHT22;4404;49.308;12.178;2023-07-29T07:02:48;19.30;99.90
8736;DHT22;4404;49.308;12.178;2023-07-29T07:04:50;19.40;99.90
8736;DHT22;4404;49.308;12.178;2023-07-29T07:06:52;19.50;99.90
8736;DHT22;4404;49.308;12.178;2023-07-29T07:08:54;19.60;99.90
8736;DHT22;4404;49.308;12.178;2023-07-29T07:10:58;19.80;99.90
8736;DHT22;4404;49.308;12.178;2023-07-29T07:13:00;19.70;99.90
8736;DHT22;4404;49.308;12.178;2023-07-29T07:15:03;19.70;99.90
8736;DHT22;4404;49.308;12.178;2023-07-29T07:17:05;19.70;99.90
8736;DHT22;4404;49.308;12.178;2023-07-29T07:19:08;19.70;99.90
8736;DHT22;4404;49.308;12.178;2023-07-29T07:21:10;19.80;99.90
8736;DHT22;4404;49.308;12.178;2023-07-29T07:23:15;19.80;99.90
8736;DHT22;4404;49.308;12.178;2023-07-29T07:25:18;19.80;99.90
8736;DHT22;4404;49.308;12.178;2023-07-29T07:27:21;19.70;99.90
8736;DHT22;4404;49.308;12.178;2023-07-29T07:29:24;19.70;99.90
8736;DHT22;4404;49.308;12.178;2023-07-29T07:31:26;19.60;99.90
8736;DHT22;4404;49.308;12.178;2023-07-29T07:33:28;19.60;99.90
8736;DHT22;4404;49.308;12.178;2023-07-29T07:35:30;19.60;99.90
8736;DHT22;4404;49.308;12.178;2023-07-29T07:37:32;19.60;99.90
8736;DHT22;4404;49.308;12.178;2023-07-29T07:39:35;19.50;99.90
8736;DHT22;4404;49.308;12.178;2023-07-29T07:41:37;19.30;99.90
8736;DHT22;4404;49.308;12.178;2023-07-29T07:43:41;19.10;99.90
8736;DHT22;4404;49.308;12.178;2023-07-29T07:45:43;19.10;99.90
8736;DHT22;4404;49.308;12.178;2023-07-29T07:47:44;19.00;99.90
8736;DHT22;4404;49.308;12.178;2023-07-29T07:49:46;18.90;99.90
8736;DHT22;4404;49.308;12.178;2023-07-29T07:51:51;18.90;99.90
8736;DHT22;4404;49.308;12.178;2023-07-29T07:53:54;18.90;99.90
8736;DHT22;4404;49.308;12.178;2023-07-29T07:55:56;19.10;99.90
8736;DHT22;4404;49.308;12.178;2023-07-29T07:57:58;19.20;99.90
8736;DHT22;4404;49.308;12.178;2023-07-29T08:00:02;19.40;99.90
8736;DHT22;4404;49.308;12.178;2023-07-29T08:02:07;19.50;99.90
8736;DHT22;4404;49.308;12.178;2023-07-29T08:04:10;19.40;99.90
8736;DHT22;4404;49.308;12.178;2023-07-29T08:06:12;19.30;99.90
8736;DHT22;4404;49.308;12.178;2023-07-29T08:08:14;19.30;99.90
8736;DHT22;4404;49.308;12.178;2023-07-29T08:10:18;19.30;99.90
8736;DHT22;4404;49.308;12.178;2023-07-29T08:12:20;19.30;99.90
8736;DHT22;4404;49.308;12.178;2023-07-29T08:14:23;19.30;99.90
8736;DHT22;4404;49.308;12.178;2023-07-29T08:16:28;19.30;99.90
8736;DHT22;4404;49.308;12.178;2023-07-29T08:18:31;18.40;99.90
8736;DHT22;4404;49.308;12.178;2023-07-29T08:20:33;19.20;99.90
8736;DHT22;4404;49.308;12.178;2023-07-29T08:22:34;19.00;99.90
8736;DHT22;4404;49.308;12.178;2023-07-29T08:24:36;19.00;99.90
8736;DHT22;4404;49.308;12.178;2023-07-29T08:26:39;19.10;99.90
8736;DHT22;4404;49.308;12.178;2023-07-29T08:28:40;18.90;99.90
8736;DHT22;4404;49.308;12.178;2023-07-29T08:30:42;18.90;99.90
8736;DHT22;4404;49.308;12.178;2023-07-29T08:32:46;18.80;99.90
8736;DHT22;4404;49.308;12.178;2023-07-29T08:34:48;18.80;99.90
8736;DHT22;4404;49.308;12.178;2023-07-29T08:36:50;18.70;99.90
8736;DHT22;4404;49.308;12.178;2023-07-29T08:38:52;18.70;99.90
8736;DHT22;4404;49.308;12.178;2023-07-29T08:40:59;18.70;99.90
8736;DHT22;4404;49.308;12.178;2023-07-29T08:43:07;18.60;99.90
8736;DHT22;4404;49.308;12.178;2023-07-29T08:45:09;18.50;99.90
8736;DHT22;4404;49.308;12.178;2023-07-29T08:47:12;18.40;99.90
8736;DHT22;4404;49.308;12.178;2023-07-29T08:49:16;18.40;99.90
8736;DHT22;4404;49.308;12.178;2023-07-29T08:51:21;18.40;99.90
8736;DHT22;4404;49.308;12.178;2023-07-29T08:53:25;18.20;99.90
8736;DHT22;4404;49.308;12.178;2023-07-29T08:55:28;18.20;99.90
8736;DHT22;4404;49.308;12.178;2023-07-29T08:57:30;18.10;99.90
8736;DHT22;4404;49.308;12.178;2023-07-29T08:59:33;18.10;99.90
8736;DHT22;4404;49.308;12.178;2023-07-29T09:01:35;18.00;99.90
8736;DHT22;4404;49.308;12.178;2023-07-29T09:03:37;17.00;99.90
8736;DHT22;4404;49.308;12.178;2023-07-29T09:05:41;18.00;99.90
8736;DHT22;4404;49.308;12.178;2023-07-29T09:07:44;17.90;99.90
8736;DHT22;4404;49.308;12.178;2023-07-29T09:09:47;17.80;99.90
8736;DHT22;4404;49.308;12.178;2023-07-29T09:11:50;17.70;99.90
8736;DHT22;4404;49.308;12.178;2023-07-29T09:13:52;17.80;99.90
8736;DHT22;4404;49.308;12.178;2023-07-29T09:15:55;17.80;99.90
8736;DHT22;4404;49.308;12.178;2023-07-29T09:17:58;17.90;99.90
8736;DHT22;4404;49.308;12.178;2023-07-29T09:20:01;17.80;99.90
8736;DHT22;4404;49.308;12.178;2023-07-29T09:22:17;17.80;99.90
8736;DHT22;4404;49.308;12.178;2023-07-29T09:24:21;17.80;99.90
8736;DHT22;4404;49.308;12.178;2023-07-29T09:26:23;17.80;99.90
8736;DHT22;4404;49.308;12.178;2023-07-29T09:28:26;17.90;99.90
8736;DHT22;4404;49.308;12.178;2023-07-29T09:30:29;18.00;99.90
8736;DHT22;4404;49.308;12.178;2023-07-29T09:32:31;18.00;99.90
8736;DHT22;4404;49.308;12.178;2023-07-29T09:34:41;18.00;99.90
8736;DHT22;4404;49.308;12.178;2023-07-29T09:36:43;18.10;99.90
8736;DHT22;4404;49.308;12.178;2023-07-29T09:38:47;18.20;99.90
8736;DHT22;4404;49.308;12.178;2023-07-29T09:40:49;18.30;99.90
8736;DHT22;4404;49.308;12.178;2023-07-29T09:42:52;18.30;99.90
8736;DHT22;4404;49.308;12.178;2023-07-29T09:44:56;18.40;99.90
8736;DHT22;4404;49.308;12.178;2023-07-29T09:46:58;18.30;99.90
8736;DHT22;4404;49.308;12.178;2023-07-29T09:49:02;18.40;99.90
8736;DHT22;4404;49.308;12.178;2023-07-29T09:51:14;18.40;99.90
8736;DHT22;4404;49.308;12.178;2023-07-29T09:53:17;18.40;99.90
8736;DHT22;4404;49.308;12.178;2023-07-29T09:55:22;18.40;99.90
8736;DHT22;4404;49.308;12.178;2023-07-29T09:57:25;18.50;99.90
8736;DHT22;4404;49.308;12.178;2023-07-29T09:59:27;18.60;99.90
8736;DHT22;4404;49.308;12.178;2023-07-29T10:01:32;18.70;99.90
8736;DHT22;4404;49.308;12.178;2023-07-29T10:03:36;18.80;99.90
8736;DHT22;4404;49.308;12.178;2023-07-29T10:05:40;18.90;99.90
8736;DHT22;4404;49.308;12.178;2023-07-29T10:07:42;18.90;99.90
8736;DHT22;4404;49.308;12.178;2023-07-29T10:09:45;19.00;99.90
8736;DHT22;4404;49.308;12.178;2023-07-29T10:11:49;19.00;99.90
8736;DHT22;4404;49.308;12.178;2023-07-29T10:13:53;18.80;99.90
8736;DHT22;4404;49.308;12.178;2023-07-29T10:15:57;18.90;99.90
8736;DHT22;4404;49.308;12.178;2023-07-29T10:17:59;18.80;99.90
8736;DHT22;4404;49.308;12.178;2023-07-29T10:20:04;18.90;99.90
8736;DHT22;4404;49.308;12.178;2023-07-29T10:22:09;18.90;99.90
8736;DHT22;4404;49.308;12.178;2023-07-29T10:24:15;19.00;99.90
8736;DHT22;4404;49.308;12.178;2023-07-29T10:26:19;19.00;99.90
8736;DHT22;4404;49.308;12.178;2023-07-29T10:28:25;18.80;99.90
8736;DHT22;4404;49.308;12.178;2023-07-29T10:30:28;18.70;99.90
8736;DHT22;4404;49.308;12.178;2023-07-29T10:32:31;18.80;99.90
8736;DHT22;4404;49.308;12.178;2023-07-29T10:34:34;18.70;99.90
8736;DHT22;4404;49.308;12.178;2023-07-29T10:36:37;19.00;99.90
8736;DHT22;4404;49.308;12.178;2023-07-29T10:38:39;18.80;99.90
8736;DHT22;4404;49.308;12.178;2023-07-29T10:40:46;18.80;99.90
8736;DHT22;4404;49.308;12.178;2023-07-29T10:43:02;18.80;99.90
8736;DHT22;4404;49.308;12.178;2023-07-29T10:45:21;18.90;99.90
8736;DHT22;4404;49.308;12.178;2023-07-29T10:47:25;18.90;99.90
8736;DHT22;4404;49.308;12.178;2023-07-29T10:49:29;19.00;99.90
8736;DHT22;4404;49.308;12.178;2023-07-29T10:51:35;19.00;99.90
8736;DHT22;4404;49.308;12.178;2023-07-29T10:53:37;19.10;99.90
8736;DHT22;4404;49.308;12.178;2023-07-29T10:55:39;19.20;99.90
8736;DHT22;4404;49.308;12.178;2023-07-29T10:57:45;19.30;99.90
8736;DHT22;4404;49.308;12.178;2023-07-29T10:59:54;19.30;99.90
8736;DHT22;4404;49.308;12.178;2023-07-29T11:01:59;19.50;99.90
8736;DHT22;4404;49.308;12.178;2023-07-29T11:04:23;19.50;99.90
8736;DHT22;4404;49.308;12.178;2023-07-29T11:06:25;19.70;99.90
8736;DHT22;4404;49.308;12.178;2023-07-29T11:08:28;19.80;99.90
8736;DHT22;4404;49.308;12.178;2023-07-29T11:10:42;19.70;99.90
8736;DHT22;4404;49.308;12.178;2023-07-29T11:12:46;19.80;99.90
8736;DHT22;4404;49.308;12.178;2023-07-29T11:14:51;19.70;99.90
8736;DHT22;4404;49.308;12.178;2023-07-29T11:16:52;19.60;99.90
8736;DHT22;4404;49.308;12.178;2023-07-29T11:18:57;19.50;99.90
8736;DHT22;4404;49.308;12.178;2023-07-29T11:21:01;19.40;99.90
8736;DHT22;4404;49.308;12.178;2023-07-29T11:23:04;19.30;99.90
8736;DHT22;4404;49.308;12.178;2023-07-29T11:25:08;19.40;99.90
8736;DHT22;4404;49.308;12.178;2023-07-29T11:27:11;19.50;99.90
8736;DHT22;4404;49.308;12.178;2023-07-29T11:29:16;19.70;99.90
8736;DHT22;4404;49.308;12.178;2023-07-29T11:31:18;19.80;99.90
8736;DHT22;4404;49.308;12.178;2023-07-29T11:33:21;19.70;99.90
8736;DHT22;4404;49.308;12.178;2023-07-29T11:35:26;19.80;99.90
8736;DHT22;4404;49.308;12.178;2023-07-29T11:37:28;20.00;99.90
8736;DHT22;4404;49.308;12.178;2023-07-29T11:39:29;20.00;99.90
8736;DHT22;4404;49.308;12.178;2023-07-29T11:41:33;20.30;99.90
8736;DHT22;4404;49.308;12.178;2023-07-29T11:43:37;20.40;99.90
8736;DHT22;4404;49.308;12.178;2023-07-29T11:45:40;20.60;99.90
8736;DHT22;4404;49.308;12.178;2023-07-29T11:47:42;20.80;99.90
8736;DHT22;4404;49.308;12.178;2023-07-29T11:49:44;20.80;99.90
8736;DHT22;4404;49.308;12.178;2023-07-29T11:51:48;20.80;99.90
8736;DHT22;4404;49.308;12.178;2023-07-29T11:53:51;21.00;99.90
8736;DHT22;4404;49.308;12.178;2023-07-29T11:55:54;21.20;99.90
8736;DHT22;4404;49.308;12.178;2023-07-29T11:57:56;21.40;99.90
8736;DHT22;4404;49.308;12.178;2023-07-29T11:59:59;21.60;99.90
8736;DHT22;4404;49.308;12.178;2023-07-29T12:02:05;21.70;99.90
8736;DHT22;4404;49.308;12.178;2023-07-29T12:04:10;21.60;99.90
8736;DHT22;4404;49.308;12.178;2023-07-29T12:06:12;21.70;99.90
8736;DHT22;4404;49.308;12.178;2023-07-29T12:08:16;21.70;99.90
8736;DHT22;4404;49.308;12.178;2023-07-29T12:10:18;21.50;99.90
8736;DHT22;4404;49.308;12.178;2023-07-29T12:12:22;21.50;99.90
8736;DHT22;4404;49.308;12.178;2023-07-29T12:16:31;21.70;99.90
8736;DHT22;4404;49.308;12.178;2023-07-29T12:18:38;21.80;99.90
8736;DHT22;4404;49.308;12.178;2023-07-29T12:20:40;21.90;99.90
8736;DHT22;4404;49.308;12.178;2023-07-29T12:22:43;22.00;99.90
8736;DHT22;4404;49.308;12.178;2023-07-29T12:24:47;22.20;99.90
8736;DHT22;4404;49.308;12.178;2023-07-29T12:26:49;22.50;99.90
8736;DHT22;4404;49.308;12.178;2023-07-29T12:28:51;22.60;99.90
8736;DHT22;4404;49.308;12.178;2023-07-29T12:30:53;22.60;99.90
8736;DHT22;4404;49.308;12.178;2023-07-29T12:32:57;22.60;99.90
8736;DHT22;4404;49.308;12.178;2023-07-29T12:35:02;22.60;99.90
8736;DHT22;4404;49.308;12.178;2023-07-29T12:37:07;22.80;99.90
8736;DHT22;4404;49.308;12.178;2023-07-29T12:39:16;22.80;99.90
8736;DHT22;4404;49.308;12.178;2023-07-29T12:41:20;22.60;99.90
8736;DHT22;4404;49.308;12.178;2023-07-29T12:43:22;22.40;99.90
8736;DHT22;4404;49.308;12.178;2023-07-29T12:45:25;22.20;99.90
8736;DHT22;4404;49.308;12.178;2023-07-29T12:47:29;22.20;99.90
8736;DHT22;4404;49.308;12.178;2023-07-29T12:49:31;22.20;99.90
8736;DHT22;4404;49.308;12.178;2023-07-29T12:51:34;22.30;99.90
8736;DHT22;4404;49.308;12.178;2023-07-29T12:53:36;22.40;99.90
8736;DHT22;4404;49.308;12.178;2023-07-29T12:55:39;22.50;99.90
8736;DHT22;4404;49.308;12.178;2023-07-29T12:57:43;22.50;99.90
8736;DHT22;4404;49.308;12.178;2023-07-29T12:59:45;22.40;99.90
8736;DHT22;4404;49.308;12.178;2023-07-29T13:01:47;22.50;99.90
8736;DHT22;4404;49.308;12.178;2023-07-29T13:03:49;22.60;99.90
8736;DHT22;4404;49.308;12.178;2023-07-29T13:05:52;22.60;99.90
8736;DHT22;4404;49.308;12.178;2023-07-29T13:07:56;22.50;99.90
8736;DHT22;4404;49.308;12.178;2023-07-29T13:10:00;22.60;99.90
8736;DHT22;4404;49.308;12.178;2023-07-29T13:12:04;22.70;99.90
8736;DHT22;4404;49.308;12.178;2023-07-29T13:14:08;22.70;99.90
8736;DHT22;4404;49.308;12.178;2023-07-29T13:16:10;22.80;99.90
8736;DHT22;4404;49.308;12.178;2023-07-29T13:18:12;22.80;99.90
8736;DHT22;4404;49.308;12.178;2023-07-29T13:20:14;23.00;99.90
8736;DHT22;4404;49.308;12.178;2023-07-29T13:22:20;23.30;99.90
8736;DHT22;4404;49.308;12.178;2023-07-29T13:24:21;23.40;99.90
8736;DHT22;4404;49.308;12.178;2023-07-29T13:26:23;23.30;99.90
8736;DHT22;4404;49.308;12.178;2023-07-29T13:28:24;23.40;99.90
8736;DHT22;4404;49.308;12.178;2023-07-29T13:30:28;23.50;99.90
8736;DHT22;4404;49.308;12.178;2023-07-29T13:32:31;23.80;99.90
8736;DHT22;4404;49.308;12.178;2023-07-29T13:34:33;24.10;99.90
8736;DHT22;4404;49.308;12.178;2023-07-29T13:36:35;24.30;99.90
8736;DHT22;4404;49.308;12.178;2023-07-29T13:38:38;24.50;99.90
8736;DHT22;4404;49.308;12.178;2023-07-29T13:42:42;24.60;99.90
8736;DHT22;4404;49.308;12.178;2023-07-29T13:44:44;24.30;99.90
8736;DHT22;4404;49.308;12.178;2023-07-29T13:46:47;24.00;99.90
8736;DHT22;4404;49.308;12.178;2023-07-29T13:48:49;23.70;99.90
8736;DHT22;4404;49.308;12.178;2023-07-29T13:50:51;23.70;99.90
8736;DHT22;4404;49.308;12.178;2023-07-29T13:52:53;23.40;99.90
8736;DHT22;4404;49.308;12.178;2023-07-29T13:54:55;23.20;99.90
8736;DHT22;4404;49.308;12.178;2023-07-29T13:56:57;23.30;99.90
8736;DHT22;4404;49.308;12.178;2023-07-29T13:58:59;23.30;99.90
8736;DHT22;4404;49.308;12.178;2023-07-29T14:01:01;23.30;99.90
8736;DHT22;4404;49.308;12.178;2023-07-29T14:03:04;23.40;99.90
8736;DHT22;4404;49.308;12.178;2023-07-29T14:05:07;23.70;99.90
8736;DHT22;4404;49.308;12.178;2023-07-29T14:07:12;23.90;99.90
8736;DHT22;4404;49.308;12.178;2023-07-29T14:09:14;24.00;99.90
8736;DHT22;4404;49.308;12.178;2023-07-29T14:11:16;24.00;99.90
8736;DHT22;4404;49.308;12.178;2023-07-29T14:13:19;24.10;99.90
8736;DHT22;4404;49.308;12.178;2023-07-29T14:15:21;23.90;99.90
8736;DHT22;4404;49.308;12.178;2023-07-29T14:17:24;23.70;99.90
8736;DHT22;4404;49.308;12.178;2023-07-29T14:19:29;23.80;99.90
8736;DHT22;4404;49.308;12.178;2023-07-29T14:21:32;23.80;99.90
8736;DHT22;4404;49.308;12.178;2023-07-29T14:23:34;23.90;99.90
8736;DHT22;4404;49.308;12.178;2023-07-29T14:25:38;24.10;99.90
8736;DHT22;4404;49.308;12.178;2023-07-29T14:27:42;24.00;99.90
8736;DHT22;4404;49.308;12.178;2023-07-29T14:29:45;24.00;99.90
8736;DHT22;4404;49.308;12.178;2023-07-29T14:31:47;24.10;99.90
8736;DHT22;4404;49.308;12.178;2023-07-29T14:33:49;24.20;99.90
8736;DHT22;4404;49.308;12.178;2023-07-29T14:35:53;24.40;99.90
8736;DHT22;4404;49.308;12.178;2023-07-29T14:37:55;24.60;99.90
8736;DHT22;4404;49.308;12.178;2023-07-29T14:39:57;24.60;99.90
8736;DHT22;4404;49.308;12.178;2023-07-29T14:42:13;24.60;99.90
8736;DHT22;4404;49.308;12.178;2023-07-29T14:44:58;24.60;99.90
8736;DHT22;4404;49.308;12.178;2023-07-29T14:47:07;24.20;99.90
8736;DHT22;4404;49.308;12.178;2023-07-29T14:49:12;24.60;99.90
8736;DHT22;4404;49.308;12.178;2023-07-29T14:51:15;24.60;99.90
8736;DHT22;4404;49.308;12.178;2023-07-29T14:53:18;24.50;99.90
8736;DHT22;4404;49.308;12.178;2023-07-29T14:55:19;24.50;99.90
8736;DHT22;4404;49.308;12.178;2023-07-29T14:57:22;24.50;99.90
8736;DHT22;4404;49.308;12.178;2023-07-29T14:59:25;24.50;99.90
8736;DHT22;4404;49.308;12.178;2023-07-29T15:01:29;24.60;99.90
8736;DHT22;4404;49.308;12.178;2023-07-29T15:03:31;24.70;99.90
8736;DHT22;4404;49.308;12.178;2023-07-29T15:05:35;24.90;99.90
8736;DHT22;4404;49.308;12.178;2023-07-29T15:07:41;25.00;99.90
8736;DHT22;4404;49.308;12.178;2023-07-29T15:09:47;25.10;99.90
8736;DHT22;4404;49.308;12.178;2023-07-29T15:11:52;25.30;99.90
8736;DHT22;4404;49.308;12.178;2023-07-29T15:13:54;25.30;99.90
8736;DHT22;4404;49.308;12.178;2023-07-29T15:16:05;25.30;99.90
8736;DHT22;4404;49.308;12.178;2023-07-29T15:18:24;25.30;99.90
8736;DHT22;4404;49.308;12.178;2023-07-29T15:20:36;25.30;99.90
8736;DHT22;4404;49.308;12.178;2023-07-29T15:23:11;25.30;99.90
8736;DHT22;4404;49.308;12.178;2023-07-29T15:25:13;26.10;99.90
8736;DHT22;4404;49.308;12.178;2023-07-29T15:27:19;25.40;99.90
8736;DHT22;4404;49.308;12.178;2023-07-29T15:45:25;25.30;99.90
8736;DHT22;4404;49.308;12.178;2023-07-29T15:47:49;25.30;99.90
8736;DHT22;4404;49.308;12.178;2023-07-29T15:49:51;25.20;99.90
8736;DHT22;4404;49.308;12.178;2023-07-29T15:51:53;25.20;99.90
8736;DHT22;4404;49.308;12.178;2023-07-29T15:54:20;25.30;99.90
8736;DHT22;4404;49.308;12.178;2023-07-29T15:56:27;25.10;99.90
8736;DHT22;4404;49.308;12.178;2023-07-29T15:58:39;25.60;99.90
8736;DHT22;4404;49.308;12.178;2023-07-29T16:01:00;25.60;99.90
8736;DHT22;4404;49.308;12.178;2023-07-29T16:03:12;25.50;99.90
8736;DHT22;4404;49.308;12.178;2023-07-29T16:05:14;25.50;99.90
8736;DHT22;4404;49.308;12.178;2023-07-29T16:07:16;25.50;99.90
8736;DHT22;4404;49.308;12.178;2023-07-29T16:09:21;25.30;99.90
8736;DHT22;4404;49.308;12.178;2023-07-29T16:11:23;25.40;99.90
8736;DHT22;4404;49.308;12.178;2023-07-29T16:13:25;25.30;99.90
8736;DHT22;4404;49.308;12.178;2023-07-29T16:15:27;25.30;99.90
8736;DHT22;4404;49.308;12.178;2023-07-29T16:17:29;25.50;99.90
8736;DHT22;4404;49.308;12.178;2023-07-29T16:19:30;25.60;99.90
8736;DHT22;4404;49.308;12.178;2023-07-29T16:21:33;25.60;99.90
8736;DHT22;4404;49.308;12.178;2023-07-29T16:23:35;25.40;99.90
8736;DHT22;4404;49.308;12.178;2023-07-29T16:25:38;25.40;99.90
8736;DHT22;4404;49.308;12.178;2023-07-29T16:27:40;25.20;99.90
8736;DHT22;4404;49.308;12.178;2023-07-29T16:29:43;25.00;99.90
8736;DHT22;4404;49.308;12.178;2023-07-29T16:31:48;24.90;99.90
8736;DHT22;4404;49.308;12.178;2023-07-29T16:33:50;24.80;99.90
8736;DHT22;4404;49.308;12.178;2023-07-29T16:35:52;24.60;99.90
8736;DHT22;4404;49.308;12.178;2023-07-29T16:37:54;24.40;99.90
8736;DHT22;4404;49.308;12.178;2023-07-29T16:39:58;24.50;99.90
8736;DHT22;4404;49.308;12.178;2023-07-29T16:42:01;24.40;99.90
8736;DHT22;4404;49.308;12.178;2023-07-29T16:44:02;24.30;99.90
8736;DHT22;4404;49.308;12.178;2023-07-29T16:46:05;24.40;99.90
8736;DHT22;4404;49.308;12.178;2023-07-29T16:48:07;24.40;99.90
8736;DHT22;4404;49.308;12.178;2023-07-29T16:50:09;24.30;99.90
8736;DHT22;4404;49.308;12.178;2023-07-29T16:52:11;24.20;99.90
8736;DHT22;4404;49.308;12.178;2023-07-29T16:54:13;24.30;99.90
8736;DHT22;4404;49.308;12.178;2023-07-29T16:56:18;24.20;99.90
8736;DHT22;4404;49.308;12.178;2023-07-29T16:58:21;24.20;99.90
8736;DHT22;4404;49.308;12.178;2023-07-29T17:00:24;24.10;99.90
8736;DHT22;4404;49.308;12.178;2023-07-29T17:02:26;24.10;99.90
8736;DHT22;4404;49.308;12.178;2023-07-29T17:04:28;24.00;99.90
8736;DHT22;4404;49.308;12.178;2023-07-29T17:06:30;24.00;99.90
8736;DHT22;4404;49.308;12.178;2023-07-29T17:08:32;24.00;99.90
8736;DHT22;4404;49.308;12.178;2023-07-29T17:10:34;24.10;99.90
8736;DHT22;4404;49.308;12.178;2023-07-29T17:12:36;24.00;99.90
8736;DHT22;4404;49.308;12.178;2023-07-29T17:14:40;24.00;99.90
8736;DHT22;4404;49.308;12.178;2023-07-29T17:16:42;24.00;99.90
8736;DHT22;4404;49.308;12.178;2023-07-29T17:18:44;23.90;99.90
8736;DHT22;4404;49.308;12.178;2023-07-29T17:20:45;23.70;99.90
8736;DHT22;4404;49.308;12.178;2023-07-29T17:22:47;23.80;99.90
8736;DHT22;4404;49.308;12.178;2023-07-29T17:24:49;23.80;99.90
8736;DHT22;4404;49.308;12.178;2023-07-29T17:26:51;23.80;99.90
8736;DHT22;4404;49.308;12.178;2023-07-29T17:28:54;23.70;99.90
8736;DHT22;4404;49.308;12.178;2023-07-29T17:30:57;23.70;99.90
8736;DHT22;4404;49.308;12.178;2023-07-29T17:32:59;23.80;99.90
8736;DHT22;4404;49.308;12.178;2023-07-29T17:35:01;23.90;99.90
8736;DHT22;4404;49.308;12.178;2023-07-29T17:37:04;24.00;99.90
8736;DHT22;4404;49.308;12.178;2023-07-29T17:39:06;24.00;99.90
8736;DHT22;4404;49.308;12.178;2023-07-29T17:41:08;23.80;99.90
8736;DHT22;4404;49.308;12.178;2023-07-29T17:43:10;23.70;99.90
8736;DHT22;4404;49.308;12.178;2023-07-29T17:45:13;23.70;99.90
8736;DHT22;4404;49.308;12.178;2023-07-29T17:47:16;23.70;99.90
8736;DHT22;4404;49.308;12.178;2023-07-29T17:49:19;23.70;99.90
8736;DHT22;4404;49.308;12.178;2023-07-29T17:51:21;23.70;99.90
8736;DHT22;4404;49.308;12.178;2023-07-29T17:53:23;23.70;99.90
8736;DHT22;4404;49.308;12.178;2023-07-29T17:55:25;23.70;99.90
8736;DHT22;4404;49.308;12.178;2023-07-29T17:57:26;23.80;99.90
8736;DHT22;4404;49.308;12.178;2023-07-29T17:59:28;23.80;99.90
8736;DHT22;4404;49.308;12.178;2023-07-29T18:01:31;23.70;99.90
8736;DHT22;4404;49.308;12.178;2023-07-29T18:03:34;23.70;99.90
8736;DHT22;4404;49.308;12.178;2023-07-29T18:05:36;23.60;99.90
8736;DHT22;4404;49.308;12.178;2023-07-29T18:07:38;23.60;99.90
8736;DHT22;4404;49.308;12.178;2023-07-29T18:09:40;23.40;99.90
8736;DHT22;4404;49.308;12.178;2023-07-29T18:11:42;23.40;99.90
8736;DHT22;4404;49.308;12.178;2023-07-29T18:13:44;23.40;99.90
8736;DHT22;4404;49.308;12.178;2023-07-29T18:15:50;23.30;99.90
8736;DHT22;4404;49.308;12.178;2023-07-29T18:17:53;23.30;99.90
8736;DHT22;4404;49.308;12.178;2023-07-29T18:19:57;23.30;99.90
8736;DHT22;4404;49.308;12.178;2023-07-29T18:21:59;23.30;99.90
8736;DHT22;4404;49.308;12.178;2023-07-29T18:24:01;23.20;99.90
8736;DHT22;4404;49.308;12.178;2023-07-29T18:26:04;23.30;99.90
8736;DHT22;4404;49.308;12.178;2023-07-29T18:28:06;23.20;99.90
8736;DHT22;4404;49.308;12.178;2023-07-29T18:30:09;23.10;99.90
8736;DHT22;4404;49.308;12.178;2023-07-29T18:32:13;23.00;99.90
8736;DHT22;4404;49.308;12.178;2023-07-29T18:34:16;23.00;99.90
8736;DHT22;4404;49.308;12.178;2023-07-29T18:36:20;22.90;99.90
8736;DHT22;4404;49.308;12.178;2023-07-29T18:38:23;22.90;99.90
8736;DHT22;4404;49.308;12.178;2023-07-29T18:40:26;22.90;99.90
8736;DHT22;4404;49.308;12.178;2023-07-29T18:42:29;22.80;99.90
8736;DHT22;4404;49.308;12.178;2023-07-29T18:44:32;22.80;99.90
8736;DHT22;4404;49.308;12.178;2023-07-29T18:46:34;22.80;99.90
8736;DHT22;4404;49.308;12.178;2023-07-29T18:48:36;22.80;99.90
8736;DHT22;4404;49.308;12.178;2023-07-29T18:50:39;22.80;99.90
8736;DHT22;4404;49.308;12.178;2023-07-29T18:52:42;22.60;99.90
8736;DHT22;4404;49.308;12.178;2023-07-29T18:54:45;22.60;99.90
8736;DHT22;4404;49.308;12.178;2023-07-29T18:56:47;22.60;99.90
8736;DHT22;4404;49.308;12.178;2023-07-29T18:58:52;22.60;99.90
8736;DHT22;4404;49.308;12.178;2023-07-29T19:00:57;22.60;99.90
8736;DHT22;4404;49.308;12.178;2023-07-29T19:03:10;22.50;99.90
8736;DHT22;4404;49.308;12.178;2023-07-29T19:05:13;22.40;99.90